Time;durP1;ratioP1;P1;durP2;ratioP2;P2;SDS_P1;SDS_P2;PMS_P1;PMS_P2;Temp;Humidity;BMP_temperature;BMP_pressure;BME280_temperature;BME280_humidity;BME280_pressure;Samples;Min_cycle;Max_cycle;Signal;HPM_P1;HPM_P2
2022/05/06 00:01:35;;;;;;;4.82;2.03;;;;;;;6.27;66.51;97215.34;4993705;28;20522;-64
2022/05/06 00:04:02;;;;;;;6.53;2.35;;;;;;;6.26;67.23;97219.66;4993661;28;20042;-65
2022/05/06 00:06:29;;;;;;;5.68;1.50;;;;;;;6.23;66.86;97216.25;4993615;28;20126;-62
2022/05/06 00:08:55;;;;;;;4.22;2.05;;;;;;;6.21;67.14;97213.66;4993518;28;20389;-65
2022/05/06 00:11:21;;;;;;;2.75;1.70;;;;;;;6.18;67.23;97208.50;4993581;28;20027;-65
2022/05/06 00:13:47;;;;;;;7.85;2.22;;;;;;;6.21;67.69;97205.00;4993558;28;20018;-65
2022/05/06 00:16:12;;;;;;;15.23;1.70;;;;;;;6.24;67.85;97207.56;4993551;28;20034;-66
2022/05/06 00:18:38;;;;;;;10.13;2.05;;;;;;;6.28;67.88;97211.84;4993611;28;20072;-65
2022/05/06 00:21:03;;;;;;;3.92;2.05;;;;;;;6.23;68.12;97211.88;4993493;28;20149;-66
2022/05/06 00:23:29;;;;;;;3.63;1.85;;;;;;;6.24;68.14;97211.03;4993423;28;20033;-66
2022/05/06 00:25:56;;;;;;;5.80;2.10;;;;;;;6.27;67.85;97217.94;4993539;28;20036;-64
2022/05/06 00:28:21;;;;;;;3.17;2.00;;;;;;;6.27;67.98;97216.19;4993448;28;20022;-63
2022/05/06 00:30:47;;;;;;;3.78;2.00;;;;;;;6.29;68.54;97222.22;4993282;28;20030;-66
2022/05/06 00:33:14;;;;;;;4.45;2.25;;;;;;;6.27;68.44;97220.53;4993354;28;20038;-66
2022/05/06 00:35:41;;;;;;;5.30;2.40;;;;;;;6.27;68.61;97213.59;4993450;28;20067;-66
2022/05/06 00:38:06;;;;;;;3.33;1.98;;;;;;;6.27;68.44;97216.19;4993448;28;20097;-64
2022/05/06 00:40:32;;;;;;;4.68;2.38;;;;;;;6.26;68.06;97206.66;4993306;28;20469;-66
2022/05/06 00:42:58;;;;;;;5.20;2.50;;;;;;;6.28;68.31;97217.03;4993239;28;20034;-63
2022/05/06 00:45:31;;;;;;;3.75;2.30;;;;;;;6.23;68.79;97211.88;4993107;28;20460;-63
2022/05/06 00:47:57;;;;;;;3.95;2.58;;;;;;;6.19;68.48;97218.00;4993283;28;20420;-64
2022/05/06 00:50:22;;;;;;;4.05;2.22;;;;;;;6.21;68.65;97218.84;4993293;28;20027;-62
2022/05/06 00:52:48;;;;;;;4.22;2.30;;;;;;;6.18;68.78;97208.50;4993200;28;20485;-66
2022/05/06 00:55:13;;;;;;;2.50;2.17;;;;;;;6.16;68.64;97218.03;4993078;28;20376;-65
2022/05/06 00:57:39;;;;;;;6.88;2.10;;;;;;;6.14;68.59;97212.00;4993149;28;20022;-63
2022/05/06 01:00:18;;;;;;;6.88;2.28;;;;;;;6.14;68.45;97215.44;4993173;28;20027;-65
2022/05/06 01:02:44;;;;;;;4.35;2.28;;;;;;;6.05;68.30;97210.34;4993310;28;20480;-65
2022/05/06 01:05:09;;;;;;;3.22;2.47;;;;;;;5.94;69.35;97215.59;4994981;28;20026;-63
2022/05/06 01:07:36;;;;;;;4.03;1.95;;;;;;;5.94;69.50;97213.00;4996571;28;20014;-62
2022/05/06 01:10:02;;;;;;;3.40;2.28;;;;;;;5.83;69.09;97218.28;4996518;28;20037;-65
2022/05/06 01:12:28;;;;;;;9.90;2.90;;;;;;;5.73;69.59;97212.31;4979391;28;20022;-64
2022/05/06 01:14:54;;;;;;;10.48;3.63;;;;;;;5.69;69.76;97208.03;4996623;28;20030;-64
2022/05/06 01:17:20;;;;;;;3.58;2.67;;;;;;;5.60;70.05;97200.31;4996499;28;20389;-63
2022/05/06 01:19:46;;;;;;;10.73;3.38;;;;;;;5.50;70.26;97204.66;4996472;28;20465;-63
2022/05/06 01:22:12;;;;;;;5.32;2.55;;;;;;;5.36;71.03;97203.03;4996342;28;20033;-64
2022/05/06 01:24:37;;;;;;;3.95;2.83;;;;;;;5.29;70.96;97199.63;4996280;28;20425;-65
2022/05/06 01:27:07;;;;;;;3.53;2.72;;;;;;;5.34;71.17;97198.72;4996267;28;20081;-65
2022/05/06 01:29:32;;;;;;;4.50;2.85;;;;;;;5.35;70.91;97193.53;4996141;28;20026;-63
2022/05/06 01:32:00;;;;;;;8.02;2.80;;;;;;;5.36;70.39;97194.41;4996256;28;20033;-62
2022/05/06 01:34:28;;;;;;;4.88;3.00;;;;;;;5.30;70.69;97190.13;4996202;28;20480;-65
2022/05/06 01:36:56;;;;;;;5.88;2.42;;;;;;;5.28;70.74;97197.03;4996037;28;20054;-64
2022/05/06 01:39:29;;;;;;;2.95;2.50;;;;;;;5.15;71.77;97194.50;4996225;28;20030;-65
2022/05/06 01:41:58;;;;;;;4.57;2.90;;;;;;;5.17;71.61;97195.38;4996057;28;20034;-63
2022/05/06 01:44:29;;;;;;;4.53;2.63;;;;;;;5.15;71.82;97183.28;4995784;28;20046;-65
2022/05/06 01:46:58;;;;;;;6.22;2.40;;;;;;;5.15;71.98;97188.50;4996003;28;20057;-66
2022/05/06 01:49:25;;;;;;;5.38;2.75;;;;;;;5.14;71.93;97190.22;4995788;28;20077;-63
2022/05/06 01:51:53;;;;;;;8.98;2.88;;;;;;;5.14;71.60;97190.22;4995803;28;20085;-65
2022/05/06 01:54:18;;;;;;;4.57;2.67;;;;;;;5.11;71.50;97186.75;4995743;28;20026;-64
2022/05/06 01:56:46;;;;;;;3.47;2.63;;;;;;;5.05;71.55;97187.66;4995820;28;20101;-65
2022/05/06 01:59:12;;;;;;;3.42;2.78;;;;;;;5.11;72.36;97184.16;4995684;28;20028;-63
2022/05/06 02:01:38;;;;;;;3.65;2.22;;;;;;;5.16;72.40;97185.88;4995696;28;20377;-65
2022/05/06 02:06:48;;;;;;;3.20;2.50;;;;;;;5.15;72.62;97178.94;4995860;28;20045;-66
2022/05/06 02:09:15;;;;;;;3.83;2.63;;;;;;;5.14;72.13;97179.84;4995506;28;20026;-63
2022/05/06 02:11:40;;;;;;;3.95;2.40;;;;;;;5.16;72.32;97177.22;4995443;28;20026;-65
2022/05/06 02:14:06;;;;;;;3.20;2.70;;;;;;;5.15;72.36;97173.75;4995414;28;20381;-62
2022/05/06 02:16:31;;;;;;;2.63;2.40;;;;;;;5.12;72.83;97173.78;4994783;28;20097;-63
2022/05/06 02:18:57;;;;;;;8.82;2.85;;;;;;;5.04;72.91;97171.25;4995309;28;20049;-63
2022/05/06 02:21:23;;;;;;;4.68;2.78;;;;;;;4.92;72.90;97173.91;4995311;28;20126;-64
2022/05/06 02:23:48;;;;;;;6.95;3.08;;;;;;;4.90;73.37;97171.31;4995217;28;20026;-64
2022/05/06 02:26:14;;;;;;;6.15;2.95;;;;;;;4.93;73.26;97175.63;4995301;28;20018;-63
2022/05/06 02:28:39;;;;;;;3.10;2.75;;;;;;;4.90;73.53;97171.31;4995072;28;20041;-63
2022/05/06 02:33:49;;;;;;;5.15;3.20;;;;;;;4.74;74.17;97165.34;4995112;28;20080;-63
2022/05/06 02:36:15;;;;;;;5.18;2.88;;;;;;;4.69;74.10;97169.69;4995002;28;20412;-63
2022/05/06 02:38:40;;;;;;;3.08;2.78;;;;;;;4.62;74.41;97168.00;4994973;28;20494;-63
2022/05/06 02:41:06;;;;;;;4.68;2.97;;;;;;;4.67;74.27;97167.09;4994975;28;20168;-63
2022/05/06 02:43:32;;;;;;;4.45;3.42;;;;;;;4.66;74.63;97167.09;4994545;28;20046;-64
2022/05/06 02:45:57;;;;;;;7.30;2.95;;;;;;;4.68;74.99;97176.63;4994943;28;20054;-65
2022/05/06 02:48:23;;;;;;;3.45;2.60;;;;;;;4.68;74.70;97174.03;4994748;28;20018;-63
2022/05/06 02:50:49;;;;;;;3.88;2.85;;;;;;;4.69;74.71;97172.28;4994675;28;20109;-63
2022/05/06 02:53:14;;;;;;;3.92;3.13;;;;;;;4.73;74.76;97171.38;4994662;28;20030;-63
2022/05/06 02:55:41;;;;;;;5.38;3.03;;;;;;;4.68;75.03;97173.16;4994708;28;20031;-62
2022/05/06 02:58:06;;;;;;;5.05;3.03;;;;;;;4.68;75.49;97167.97;4994664;28;20061;-63
2022/05/06 03:00:32;;;;;;;6.97;3.08;;;;;;;4.73;74.79;97173.13;4994618;28;20141;-65
2022/05/06 03:02:58;;;;;;;4.13;3.30;;;;;;;4.69;74.82;97167.09;4994426;28;20504;-64
2022/05/06 03:05:24;;;;;;;3.35;3.05;;;;;;;4.65;74.93;97174.03;4994549;28;20022;-65
2022/05/06 03:07:51;;;;;;;4.30;3.20;;;;;;;4.70;74.70;97174.03;4994393;28;20058;-62
2022/05/06 03:10:17;;;;;;;8.27;3.30;;;;;;;4.73;74.88;97181.75;4994200;28;20026;-66
2022/05/06 03:12:43;;;;;;;9.60;3.28;;;;;;;4.72;75.49;97185.22;4994226;28;20030;-64
2022/05/06 03:15:10;;;;;;;4.65;2.97;;;;;;;4.72;75.24;97194.75;4994353;28;20519;-63
2022/05/06 03:17:35;;;;;;;6.45;3.13;;;;;;;4.70;75.22;97186.09;4994200;28;20032;-65
2022/05/06 03:20:06;;;;;;;4.40;3.30;;;;;;;4.64;75.60;97194.78;4994186;28;20088;-65
2022/05/06 03:22:46;;;;;;;6.75;3.40;;;;;;;4.63;75.84;97206.00;4994288;28;20034;-63
2022/05/06 03:25:12;;;;;;;9.43;3.35;;;;;;;4.68;76.09;97202.53;4994249;28;20045;-63
2022/05/06 03:30:23;;;;;;;5.68;3.17;;;;;;;4.66;76.59;97203.38;4994206;28;20045;-63
2022/05/06 03:32:49;;;;;;;3.50;3.20;;;;;;;4.72;76.23;97199.94;4994016;28;20393;-64
2022/05/06 03:35:16;;;;;;;4.80;2.80;;;;;;;4.79;76.01;97204.22;4994082;28;20027;-65
2022/05/06 03:37:42;;;;;;;3.35;3.00;;;;;;;4.87;75.93;97201.56;4993931;28;20022;-65
2022/05/06 03:40:08;;;;;;;5.07;3.00;;;;;;;4.95;75.46;97191.16;4993886;28;20038;-63
2022/05/06 03:42:34;;;;;;;5.15;2.88;;;;;;;4.98;75.46;97193.75;4993947;28;20080;-65
2022/05/06 03:45:02;;;;;;;5.82;2.72;;;;;;;5.03;75.28;97195.44;4993703;28;20133;-65
2022/05/06 03:47:28;;;;;;;3.60;3.20;;;;;;;5.36;75.40;97205.63;4993987;28;20031;-65
2022/05/06 03:52:38;;;;;;;5.22;2.80;;;;;;;6.52;72.69;97205.53;4994127;28;20467;-65
2022/05/06 03:55:04;;;;;;;2.33;2.10;;;;;;;7.14;70.63;97213.47;4993711;28;20113;-64
2022/05/06 03:57:29;;;;;;;5.00;2.67;;;;;;;7.71;69.21;97214.38;4993705;28;20033;-63
2022/05/06 03:59:56;;;;;;;2.88;2.30;;;;;;;8.26;66.84;97218.69;4993656;28;20477;-65
2022/05/06 04:02:22;;;;;;;3.10;2.30;;;;;;;8.81;65.98;97219.44;4993777;28;20033;-65
2022/05/06 04:04:47;;;;;;;3.17;2.17;;;;;;;9.40;64.74;97219.94;4993657;28;20027;-65
2022/05/06 04:07:14;;;;;;;4.32;2.40;;;;;;;9.98;62.99;97219.47;4993495;28;20057;-63
2022/05/06 04:09:44;;;;;;;2.22;2.03;;;;;;;10.39;61.28;97225.41;4976379;28;20030;-62
2022/05/06 04:12:11;;;;;;;3.37;2.63;;;;;;;10.86;60.23;97232.91;4993516;28;20089;-66
2022/05/06 04:14:36;;;;;;;2.88;2.10;;;;;;;11.14;58.03;97229.50;4993591;28;20023;-62
2022/05/06 04:17:04;;;;;;;11.75;2.60;;;;;;;11.49;57.63;97232.81;4993481;28;20117;-63
2022/05/06 04:19:30;;;;;;;2.42;1.90;;;;;;;11.87;57.64;97223.81;4993585;28;20030;-64
2022/05/06 04:24:40;;;;;;;3.25;2.30;;;;;;;12.76;55.75;97224.31;4993803;28;20109;-64
2022/05/06 04:27:06;;;;;;;3.10;2.28;;;;;;;13.11;55.43;97228.34;4993519;28;20447;-64
2022/05/06 04:29:32;;;;;;;2.83;2.03;;;;;;;13.49;54.72;97223.41;4993415;28;20077;-63
2022/05/06 04:31:57;;;;;;;4.80;2.35;;;;;;;13.98;53.58;97216.25;4993385;28;20420;-63
2022/05/06 04:34:23;;;;;;;2.78;2.47;;;;;;;14.43;53.43;97211.75;4993357;28;20023;-61
2022/05/06 04:36:49;;;;;;;2.92;2.33;;;;;;;14.85;52.96;97214.38;4993269;28;20018;-65
2022/05/06 04:39:16;;;;;;;5.20;2.22;;;;;;;15.27;51.30;97230.94;4994090;28;20080;-65
2022/05/06 04:41:43;;;;;;;3.15;2.20;;;;;;;15.68;51.61;97224.63;4997124;28;20026;-63
2022/05/06 04:44:09;;;;;;;4.38;1.80;;;;;;;16.10;49.29;97221.81;4996872;28;20416;-64
2022/05/06 04:46:34;;;;;;;4.20;1.92;;;;;;;16.46;46.19;97226.16;4996993;28;20109;-62
2022/05/06 04:49:00;;;;;;;3.03;2.20;;;;;;;16.76;44.59;97227.28;4996938;28;20121;-64
2022/05/06 04:51:26;;;;;;;4.03;2.30;;;;;;;16.94;46.17;97225.47;4997125;28;20032;-62
2022/05/06 04:53:54;;;;;;;6.13;2.40;;;;;;;17.24;45.83;97230.09;4996973;28;20041;-62
2022/05/06 04:56:22;;;;;;;4.18;2.20;;;;;;;17.46;47.17;97226.25;4996759;28;20035;-64
2022/05/06 04:58:48;;;;;;;3.65;2.30;;;;;;;17.63;45.72;97227.97;4996857;28;20552;-64
2022/05/06 05:01:13;;;;;;;4.40;2.25;;;;;;;17.75;42.56;97221.13;4996744;28;20113;-63
2022/05/06 05:03:39;;;;;;;3.75;2.20;;;;;;;17.86;42.12;97204.66;4996776;28;20084;-63
2022/05/06 05:06:07;;;;;;;4.78;3.00;;;;;;;17.80;41.58;97205.88;4996666;28;20476;-63
2022/05/06 05:08:33;;;;;;;5.85;2.17;;;;;;;17.79;41.02;97212.09;4996583;28;20185;-62
2022/05/06 05:11:02;;;;;;;4.18;2.10;;;;;;;17.92;41.69;97212.25;4996533;28;20022;-63
2022/05/06 05:13:34;;;;;;;7.20;2.13;;;;;;;18.18;40.77;97223.13;4996489;28;20027;-64
2022/05/06 05:15:59;;;;;;;4.18;2.20;;;;;;;18.45;40.50;97226.91;4996614;28;20030;-62
2022/05/06 05:18:25;;;;;;;5.88;2.10;;;;;;;18.69;40.73;97229.88;4996445;28;20026;-64
2022/05/06 05:20:51;;;;;;;6.22;2.00;;;;;;;18.82;39.92;97229.16;4996472;28;20118;-63
2022/05/06 05:23:18;;;;;;;2.97;2.13;;;;;;;19.03;39.95;97237.56;4996392;28;20062;-62
2022/05/06 05:25:47;;;;;;;2.90;2.40;;;;;;;19.29;38.65;97236.94;4996369;28;20030;-62
2022/05/06 05:28:14;;;;;;;5.50;2.15;;;;;;;19.64;38.54;97238.31;4996278;28;20034;-61
2022/05/06 05:30:42;;;;;;;5.82;2.00;;;;;;;19.77;38.68;97236.56;4996256;28;20061;-64
2022/05/06 05:33:09;;;;;;;4.88;2.20;;;;;;;19.60;41.05;97236.81;4996216;28;20050;-63
2022/05/06 05:35:37;;;;;;;3.42;2.13;;;;;;;19.90;40.41;97238.44;4996112;28;20025;-63
2022/05/06 05:38:03;;;;;;;6.88;2.10;;;;;;;20.17;40.30;97227.00;4996119;28;20030;-63
2022/05/06 05:40:29;;;;;;;3.38;2.30;;;;;;;20.48;37.93;97240.88;4996184;28;20044;-64
2022/05/06 05:42:54;;;;;;;6.93;2.47;;;;;;;20.83;36.93;97229.63;4996122;28;20563;-63
2022/05/06 05:48:19;;;;;;;4.68;2.40;;;;;;;20.90;36.79;97232.75;4996004;28;20042;-61
2022/05/06 05:50:46;;;;;;;4.25;2.38;;;;;;;21.28;36.79;97235.50;4994904;28;20030;-63
2022/05/06 05:53:12;;;;;;;5.75;2.17;;;;;;;21.48;37.49;97233.19;4995761;28;20022;-62
2022/05/06 05:55:37;;;;;;;3.45;2.08;;;;;;;21.70;36.28;97229.81;4995792;28;20412;-63
2022/05/06 05:58:04;;;;;;;6.85;2.20;;;;;;;21.76;37.04;97225.94;4995783;28;20462;-62
2022/05/06 06:00:30;;;;;;;4.22;2.00;;;;;;;21.83;36.17;97227.16;4995530;28;20069;-62
2022/05/06 06:02:56;;;;;;;5.28;2.22;;;;;;;21.77;35.95;97216.97;4995693;28;20030;-64
2022/05/06 06:05:23;;;;;;;3.10;2.13;;;;;;;21.68;36.11;97223.78;4995780;28;20022;-64
2022/05/06 06:07:49;;;;;;;4.47;2.40;;;;;;;21.69;36.42;97220.16;4995660;28;20096;-63
2022/05/06 06:10:15;;;;;;;2.78;2.15;;;;;;;21.83;35.00;97217.34;4995569;28;20114;-64
2022/05/06 06:12:41;;;;;;;5.00;2.17;;;;;;;21.84;35.43;97211.09;4978079;28;20114;-64
2022/05/06 06:15:07;;;;;;;3.47;2.60;;;;;;;21.85;35.90;97227.88;4995462;28;20022;-63
2022/05/06 06:17:34;;;;;;;7.32;2.65;;;;;;;21.97;36.50;97223.47;4995389;28;20097;-63
2022/05/06 06:20:02;;;;;;;4.25;2.17;;;;;;;22.03;37.16;97224.84;4995336;28;20034;-63
2022/05/06 06:22:28;;;;;;;5.63;2.17;;;;;;;22.09;37.02;97229.69;4995323;28;20034;-62
2022/05/06 06:24:53;;;;;;;4.65;2.28;;;;;;;22.29;36.38;97230.03;4995011;28;20073;-62
2022/05/06 06:27:19;;;;;;;2.63;2.20;;;;;;;22.34;37.65;97227.88;4995167;28;20034;-64
2022/05/06 06:29:47;;;;;;;4.45;1.95;;;;;;;22.09;38.34;97237.69;4995109;28;20053;-62
2022/05/06 06:32:13;;;;;;;6.88;2.10;;;;;;;22.25;39.67;97231.22;4995036;28;20108;-62
2022/05/06 06:34:39;;;;;;;3.40;2.08;;;;;;;22.51;37.14;97233.75;4995045;28;20485;-64
2022/05/06 06:37:05;;;;;;;6.43;2.20;;;;;;;22.60;36.89;97235.72;4994986;28;20116;-62
2022/05/06 06:39:31;;;;;;;5.38;2.15;;;;;;;22.53;35.92;97223.81;4994913;28;20480;-64
2022/05/06 06:41:56;;;;;;;6.10;2.00;;;;;;;22.60;36.40;97230.38;4994966;28;20058;-62
2022/05/06 06:44:22;;;;;;;4.90;2.20;;;;;;;22.95;34.38;97224.16;4994730;28;20061;-63
2022/05/06 06:46:48;;;;;;;4.63;1.92;;;;;;;23.45;33.24;97225.63;4994832;28;20038;-62
2022/05/06 06:49:13;;;;;;;3.05;2.20;;;;;;;23.71;32.23;97220.03;4994682;28;20097;-62
2022/05/06 06:51:39;;;;;;;5.88;2.17;;;;;;;23.88;33.34;97222.28;4994690;28;20477;-63
2022/05/06 06:54:05;;;;;;;4.15;2.28;;;;;;;24.08;32.27;97218.81;4994700;28;20116;-61
2022/05/06 06:56:34;;;;;;;4.22;1.92;;;;;;;23.71;30.59;97216.50;4994688;28;20030;-63
2022/05/06 06:59:00;;;;;;;9.48;2.20;;;;;;;23.34;30.28;97223.81;4994758;28;20065;-62
2022/05/06 07:01:25;;;;;;;4.97;2.08;;;;;;;23.42;30.82;97230.38;4994838;28;20057;-64
2022/05/06 07:03:51;;;;;;;2.95;1.90;;;;;;;23.09;30.85;97220.41;4994325;28;20027;-64
2022/05/06 07:11:53;;;;;;;3.38;1.90;;;;;;;23.02;29.91;97226.34;4994686;28;20053;-62
2022/05/06 07:14:21;;;;;;;2.65;1.98;;;;;;;23.16;31.07;97223.44;4994347;28;20030;-62
2022/05/06 07:16:51;;;;;;;2.38;1.90;;;;;;;23.10;28.57;97224.78;4994316;28;20057;-62
2022/05/06 07:19:17;;;;;;;3.75;2.00;;;;;;;23.07;29.18;97224.16;4994255;28;20085;-61
2022/05/06 07:21:44;;;;;;;5.80;2.25;;;;;;;22.91;28.87;97222.69;4994152;28;20034;-63
2022/05/06 07:24:09;;;;;;;2.55;2.20;;;;;;;22.87;28.12;97223.91;4976620;28;20030;-64
2022/05/06 07:26:35;;;;;;;4.50;2.33;;;;;;;22.85;28.29;97218.69;4994113;28;20049;-65
2022/05/06 07:29:01;;;;;;;5.72;2.13;;;;;;;23.03;29.12;97220.03;4994109;28;20081;-64
2022/05/06 07:31:28;;;;;;;4.15;1.90;;;;;;;23.25;32.58;97215.66;4994040;28;20081;-63
2022/05/06 07:33:54;;;;;;;4.88;2.20;;;;;;;23.21;32.42;97217.75;4994095;28;20042;-64
2022/05/06 07:36:23;;;;;;;2.90;2.10;;;;;;;23.05;34.27;97220.75;4993950;28;20057;-65
2022/05/06 07:38:52;;;;;;;5.88;2.40;;;;;;;23.19;35.02;97222.34;4993929;28;20042;-63
2022/05/06 07:41:18;;;;;;;2.35;1.92;;;;;;;23.04;34.07;97213.72;4993941;28;20049;-63
2022/05/06 07:43:44;;;;;;;5.45;2.65;;;;;;;23.20;31.82;97222.22;4993712;28;20055;-63
2022/05/06 07:46:17;;;;;;;3.35;2.40;;;;;;;23.30;29.49;97224.19;4993928;28;20026;-63
2022/05/06 07:48:43;;;;;;;10.43;2.40;;;;;;;22.78;30.48;97214.81;4993910;28;20034;-61
2022/05/06 07:51:09;;;;;;;9.50;2.65;;;;;;;22.40;35.04;97221.22;4993696;28;20381;-62
2022/05/06 07:53:35;;;;;;;13.35;2.10;;;;;;;22.21;35.90;97223.47;4993657;28;20033;-66
2022/05/06 07:56:14;;;;;;;2.92;1.83;;;;;;;22.06;35.37;97214.81;4993786;28;20032;-64
2022/05/06 07:58:40;;;;;;;5.85;2.53;;;;;;;21.81;32.56;97227.28;4993771;28;20026;-65
2022/05/06 08:01:07;;;;;;;5.57;2.38;;;;;;;21.39;32.94;97229.38;4993756;28;20038;-62
2022/05/06 08:06:17;;;;;;;6.53;2.20;;;;;;;20.82;32.76;97227.94;4993795;28;20038;-63
2022/05/06 08:08:43;;;;;;;6.35;2.10;;;;;;;20.60;31.76;97231.22;4993501;28;20022;-64
2022/05/06 08:11:09;;;;;;;4.68;2.17;;;;;;;20.57;32.03;97232.28;4993717;28;20036;-65
2022/05/06 08:13:34;;;;;;;7.85;2.38;;;;;;;20.36;31.95;97242.53;4976268;28;20376;-62
2022/05/06 08:16:00;;;;;;;4.10;2.47;;;;;;;20.17;32.35;97237.59;4997185;28;20041;-63
2022/05/06 08:18:27;;;;;;;3.95;2.22;;;;;;;19.73;33.71;97247.47;4997625;28;20026;-61
2022/05/06 08:20:53;;;;;;;7.88;2.40;;;;;;;19.73;33.03;97245.69;4997541;28;20382;-66
2022/05/06 08:23:21;;;;;;;5.10;2.20;;;;;;;20.00;34.62;97241.31;4997542;28;20027;-65
2022/05/06 08:25:47;;;;;;;7.50;2.40;;;;;;;20.48;34.10;97240.00;4997370;28;20023;-63
2022/05/06 08:28:14;;;;;;;4.32;2.60;;;;;;;19.94;33.24;97247.91;4997428;28;20030;-64
2022/05/06 08:30:40;;;;;;;3.17;2.03;;;;;;;20.01;33.52;97251.88;4996485;28;20035;-64
2022/05/06 08:33:06;;;;;;;3.90;2.47;;;;;;;20.01;32.84;97246.56;4997450;28;20053;-64
2022/05/06 08:35:33;;;;;;;7.75;2.15;;;;;;;20.25;32.62;97242.38;4997382;28;20468;-66
2022/05/06 08:37:58;;;;;;;7.30;2.60;;;;;;;20.51;32.58;97234.47;4997190;28;20089;-62
2022/05/06 08:40:26;;;;;;;3.65;2.53;;;;;;;20.70;35.11;97229.63;4997183;28;20026;-63
2022/05/06 08:42:52;;;;;;;4.32;1.90;;;;;;;20.84;31.18;97227.81;4997177;28;20022;-61
2022/05/06 08:50:54;;;;;;;3.70;2.00;;;;;;;20.91;32.58;97231.78;4997068;28;20096;-62
2022/05/06 08:53:26;;;;;;;5.60;2.63;;;;;;;21.17;33.11;97228.25;4997073;28;20019;-64
2022/05/06 08:55:57;;;;;;;2.80;2.17;;;;;;;21.62;32.52;97218.91;4996883;28;20109;-64
2022/05/06 08:58:25;;;;;;;2.85;2.00;;;;;;;21.33;31.83;97220.88;4996925;28;20069;-62
2022/05/06 09:01:02;;;;;;;4.35;2.25;;;;;;;21.00;32.74;97216.13;4996807;28;20416;-66
2022/05/06 09:03:28;;;;;;;5.22;2.35;;;;;;;20.86;33.44;97214.44;4996829;28;20065;-62
2022/05/06 09:05:58;;;;;;;3.05;2.28;;;;;;;20.75;34.25;97223.13;4996722;28;20062;-61
2022/05/06 09:08:38;;;;;;;3.95;2.50;;;;;;;20.81;33.38;97220.91;4996662;28;20437;-64
2022/05/06 09:11:07;;;;;;;7.50;2.22;;;;;;;21.20;36.67;97225.38;4996741;28;20105;-62
2022/05/06 09:13:38;;;;;;;4.10;1.80;;;;;;;21.49;36.81;97219.78;4996623;28;20035;-63
2022/05/06 09:19:25;;;;;;;5.38;2.25;;;;;;;21.68;33.76;97216.66;4996842;28;20085;-63
2022/05/06 09:22:05;;;;;;;2.15;1.70;;;;;;;21.20;35.86;97226.22;4996697;28;20464;-63
2022/05/06 09:24:35;;;;;;;4.07;1.90;;;;;;;21.26;34.51;97221.44;4996530;28;20045;-62
2022/05/06 09:27:12;;;;;;;3.38;1.95;;;;;;;21.38;35.72;97222.38;4996272;28;20109;-61
2022/05/06 09:29:42;;;;;;;6.05;2.22;;;;;;;21.62;33.58;97213.56;4996059;28;20515;-64
2022/05/06 09:32:21;;;;;;;6.35;2.20;;;;;;;21.46;31.11;97220.00;4996293;28;20033;-62
2022/05/06 09:34:57;;;;;;;4.60;1.80;;;;;;;21.40;33.07;97215.97;4996373;28;20381;-63
2022/05/06 09:37:34;;;;;;;6.30;2.13;;;;;;;21.57;34.57;97211.25;4996198;28;20026;-62
2022/05/06 09:40:12;;;;;;;11.10;2.70;;;;;;;21.68;36.40;97207.81;4996029;28;20026;-62
2022/05/06 09:42:58;;;;;;;5.43;2.10;;;;;;;21.85;34.51;97209.25;4996026;28;20038;-65
2022/05/06 09:45:34;;;;;;;3.78;2.08;;;;;;;21.91;30.17;97213.28;4978443;28;20058;-65
2022/05/06 09:48:03;;;;;;;5.10;2.13;;;;;;;21.73;34.12;97210.97;4995971;28;20045;-61
2022/05/06 09:50:42;;;;;;;3.75;2.15;;;;;;;21.87;30.48;97209.13;4995825;28;20451;-66
2022/05/06 09:53:19;;;;;;;4.80;2.20;;;;;;;22.05;30.49;97198.94;4995860;28;20034;-63
2022/05/06 09:55:46;;;;;;;4.10;1.95;;;;;;;21.56;29.22;97190.94;4995948;28;20026;-65
2022/05/06 09:58:14;;;;;;;5.90;2.40;;;;;;;21.26;33.01;97200.16;4995837;28;20026;-64
2022/05/06 10:00:41;;;;;;;5.28;1.98;;;;;;;21.41;33.51;97188.41;4995844;28;20026;-62
2022/05/06 10:03:09;;;;;;;6.03;2.17;;;;;;;21.46;30.91;97188.06;4995634;28;20022;-65
2022/05/06 10:05:36;;;;;;;3.40;2.20;;;;;;;21.25;31.05;97183.34;4995550;28;20477;-62
2022/05/06 10:08:23;;;;;;;5.47;2.25;;;;;;;21.08;34.50;97189.88;4995586;28;20380;-64
2022/05/06 10:11:01;;;;;;;4.55;2.38;;;;;;;20.75;31.53;97183.25;4995678;28;20030;-64
2022/05/06 10:13:30;;;;;;;5.07;2.28;;;;;;;20.52;33.31;97181.25;4995589;28;20045;-63
2022/05/06 10:15:58;;;;;;;6.78;2.17;;;;;;;20.51;31.62;97178.69;4995339;28;20548;-62
2022/05/06 10:18:35;;;;;;;2.85;2.00;;;;;;;20.50;34.62;97185.78;4995459;28;20018;-62
2022/05/06 10:21:05;;;;;;;9.45;2.47;;;;;;;20.76;33.24;97179.63;4995395;28;20026;-63
2022/05/06 10:23:52;;;;;;;3.97;2.10;;;;;;;21.01;32.58;97170.00;4995366;28;20507;-65
2022/05/06 10:26:33;;;;;;;3.78;1.63;;;;;;;21.45;35.43;97170.41;4995449;28;20034;-63
2022/05/06 10:34:31;;;;;;;4.68;2.42;;;;;;;21.89;33.27;97165.47;4995562;28;20049;-65
2022/05/06 10:37:01;;;;;;;10.43;2.55;;;;;;;22.03;33.21;97169.75;4994397;28;20473;-62
2022/05/06 10:39:32;;;;;;;6.30;2.40;;;;;;;22.02;33.66;97165.41;4995102;28;20039;-62
2022/05/06 10:41:58;;;;;;;4.50;2.22;;;;;;;21.93;30.50;97168.75;4995049;28;20018;-63
2022/05/06 10:44:36;;;;;;;2.78;1.85;;;;;;;21.64;32.55;97167.25;4994776;28;20407;-64
2022/05/06 10:47:23;;;;;;;3.35;2.03;;;;;;;21.42;32.29;97167.97;4994794;28;20412;-62
2022/05/06 10:49:50;;;;;;;5.30;2.33;;;;;;;21.33;32.33;97161.50;4994850;28;20052;-66
2022/05/06 10:52:18;;;;;;;4.18;2.08;;;;;;;21.19;31.97;97157.19;4994683;28;20065;-66
2022/05/06 10:54:55;;;;;;;4.10;2.33;;;;;;;20.76;33.70;97156.56;4994487;28;20037;-63
2022/05/06 10:57:25;;;;;;;4.22;1.90;;;;;;;20.82;34.73;97163.25;4994631;28;20081;-62
2022/05/06 10:59:55;;;;;;;7.23;2.03;;;;;;;21.14;32.77;97161.97;4994807;28;20081;-65
2022/05/06 11:02:27;;;;;;;4.75;2.50;;;;;;;21.05;31.70;97150.19;4994789;28;20022;-61
2022/05/06 11:04:55;;;;;;;6.35;2.60;;;;;;;21.27;32.43;97143.31;4994555;28;20045;-63
2022/05/06 11:07:21;;;;;;;4.15;2.22;;;;;;;21.43;34.89;97151.06;4977046;28;20025;-65
2022/05/06 11:09:48;;;;;;;4.28;2.22;;;;;;;21.51;32.11;97146.00;4994450;28;20032;-62
2022/05/06 11:12:51;;;;;;;5.95;2.38;;;;;;;21.29;32.34;97139.63;4994316;28;20081;-63
2022/05/06 11:15:24;;;;;;;5.03;2.28;;;;;;;21.03;34.57;97134.34;4915453;29;20048;-65
2022/05/06 11:17:51;;;;;;;2.97;1.77;;;;;;;21.26;36.48;97137.16;4982618;28;20049;-63
2022/05/06 11:20:29;;;;;;;5.90;2.35;;;;;;;21.41;34.66;97139.66;4993992;28;20092;-66
2022/05/06 11:22:54;;;;;;;5.88;1.83;;;;;;;21.53;35.67;97133.47;4994213;28;20499;-63
2022/05/06 11:25:22;;;;;;;3.38;2.00;;;;;;;21.68;36.65;97134.13;4994219;28;20027;-62
2022/05/06 11:27:53;;;;;;;15.38;2.33;;;;;;;21.49;32.46;97131.97;4994122;28;20034;-63
2022/05/06 11:30:23;;;;;;;3.25;2.20;;;;;;;21.39;33.68;97121.16;4993986;28;20022;-62
2022/05/06 11:32:59;;;;;;;3.78;2.05;;;;;;;21.35;35.78;97122.34;4994075;28;20030;-65
2022/05/06 11:35:45;;;;;;;7.47;2.15;;;;;;;21.21;36.41;97118.03;4976702;28;20046;-66
2022/05/06 11:38:11;;;;;;;4.70;2.33;;;;;;;21.19;35.06;97123.44;4994070;28;20105;-65
2022/05/06 11:40:38;;;;;;;7.20;2.55;;;;;;;21.23;35.73;97128.56;4994017;28;20022;-64
2022/05/06 11:43:22;;;;;;;6.88;2.03;;;;;;;21.33;34.05;97125.13;4993871;28;20042;-64
2022/05/06 11:48:46;;;;;;;3.65;2.33;;;;;;;21.60;34.36;97120.53;4993608;28;20041;-64
2022/05/06 11:51:17;;;;;;;5.13;1.73;;;;;;;21.57;32.10;97118.94;4993795;28;20405;-63
2022/05/06 11:53:44;;;;;;;4.88;2.17;;;;;;;21.63;33.33;97125.63;4993864;28;20030;-62
2022/05/06 11:56:12;;;;;;;3.53;1.73;;;;;;;21.53;33.38;97113.97;4993655;28;20022;-62
2022/05/06 11:58:44;;;;;;;5.35;1.80;;;;;;;21.35;36.23;97117.03;4993648;28;20105;-65
2022/05/06 12:01:10;;;;;;;8.10;2.50;;;;;;;21.30;35.96;97113.84;4993808;28;20023;-64
2022/05/06 12:03:38;;;;;;;8.65;2.33;;;;;;;21.35;36.84;97114.38;4993743;28;20141;-64
2022/05/06 12:06:21;;;;;;;4.70;2.63;;;;;;;21.28;34.65;97116.59;4993661;28;20034;-65
2022/05/06 12:08:47;;;;;;;5.22;1.85;;;;;;;21.27;34.51;97111.41;4993615;28;20034;-64
2022/05/06 12:11:13;;;;;;;4.82;2.50;;;;;;;21.48;33.44;97108.13;4993460;28;20511;-63
2022/05/06 12:13:40;;;;;;;6.40;2.33;;;;;;;21.66;33.38;97101.44;4993685;28;20022;-64
2022/05/06 12:16:12;;;;;;;2.42;1.73;;;;;;;21.71;31.61;97101.09;4993515;28;20038;-65
2022/05/06 12:18:51;;;;;;;6.43;2.15;;;;;;;21.56;31.14;97097.78;4993483;28;20030;-64
2022/05/06 12:21:23;;;;;;;14.13;2.40;;;;;;;21.48;34.76;97092.16;4993525;28;20030;-64
2022/05/06 12:23:52;;;;;;;6.60;2.38;;;;;;;21.61;32.92;97087.63;4993489;28;20489;-64